Time;durP1;ratioP1;P1;durP2;ratioP2;P2;SDS_P1;SDS_P2;PMS_P1;PMS_P2;Temp;Humidity;BMP_temperature;BMP_pressure;BME280_temperature;BME280_humidity;BME280_pressure;Samples;Min_cycle;Max_cycle;Signal;HPM_P1;HPM_P2
2023/07/31 00:00:41;;;;;;;12.17;6.53;;;16.20;99.90;;;;;;5011532;28;20267;-73
2023/07/31 00:03:06;;;;;;;11.77;6.20;;;16.30;99.90;;;;;;5011589;28;20615;-74
2023/07/31 00:05:32;;;;;;;13.20;6.70;;;16.30;99.90;;;;;;5011134;28;20223;-73
2023/07/31 00:07:58;;;;;;;10.07;6.00;;;16.30;99.90;;;;;;5011216;28;20270;-73
2023/07/31 00:10:23;;;;;;;11.77;6.23;;;16.30;99.90;;;;;;5011777;28;20291;-74
2023/07/31 00:12:49;;;;;;;10.33;6.67;;;16.30;99.90;;;;;;5015466;28;20505;-73
2023/07/31 00:15:15;;;;;;;8.23;6.30;;;16.30;99.90;;;;;;5015087;28;20203;-73
2023/07/31 00:17:40;;;;;;;6.80;5.43;;;16.30;99.90;;;;;;5015085;28;20580;-73
2023/07/31 00:20:07;;;;;;;12.90;6.90;;;16.30;99.90;;;;;;5015717;28;20168;-74
2023/07/31 00:22:32;;;;;;;10.30;6.20;;;16.30;99.90;;;;;;5015271;28;20172;-73
2023/07/31 00:24:59;;;;;;;12.10;6.33;;;16.30;99.90;;;;;;5015759;28;20183;-72
2023/07/31 00:27:25;;;;;;;11.57;6.17;;;16.20;99.90;;;;;;5015180;28;20168;-73
2023/07/31 00:29:50;;;;;;;9.13;6.13;;;16.20;99.90;;;;;;5015143;28;20196;-73
2023/07/31 00:32:16;;;;;;;7.87;5.60;;;16.20;99.90;;;;;;5014616;28;20642;-72
2023/07/31 00:34:42;;;;;;;13.10;6.47;;;16.20;99.90;;;;;;5014999;28;20168;-73
2023/07/31 00:37:07;;;;;;;8.73;6.10;;;16.20;99.90;;;;;;5014793;28;20208;-73
2023/07/31 00:39:34;;;;;;;8.53;5.83;;;16.20;99.90;;;;;;5014687;28;20177;-73
2023/07/31 00:42:00;;;;;;;8.00;5.80;;;16.20;99.90;;;;;;5013068;28;20187;-73
2023/07/31 00:44:26;;;;;;;13.23;5.73;;;16.20;99.90;;;;;;5014820;28;20176;-73
2023/07/31 00:46:52;;;;;;;12.23;6.37;;;16.30;99.90;;;;;;5014852;28;20219;-73
2023/07/31 00:49:18;;;;;;;9.90;5.07;;;16.30;99.90;;;;;;5014284;28;20450;-73
2023/07/31 00:51:43;;;;;;;10.77;5.40;;;16.30;99.90;;;;;;5014144;28;20660;-74
2023/07/31 00:54:10;;;;;;;7.27;5.37;;;16.40;99.90;;;;;;5014802;28;20168;-73
2023/07/31 00:56:37;;;;;;;10.73;5.30;;;16.40;99.90;;;;;;5014655;28;20192;-73
2023/07/31 00:59:03;;;;;;;6.07;4.80;;;16.40;99.90;;;;;;5014583;28;20641;-73
2023/07/31 01:01:28;;;;;;;5.83;5.33;;;16.50;99.90;;;;;;5014009;28;20179;-73
2023/07/31 01:03:54;;;;;;;9.43;5.63;;;16.50;99.90;;;;;;5013104;28;20311;-74
2023/07/31 01:06:23;;;;;;;8.13;5.57;;;16.50;99.90;;;;;;5014458;28;20188;-73
2023/07/31 01:09:02;;;;;;;5.27;4.77;;;16.50;99.90;;;;;;5014493;28;20238;-73
2023/07/31 01:11:30;;;;;;;7.70;5.73;;;16.60;99.90;;;;;;5013820;28;20255;-73
2023/07/31 01:13:57;;;;;;;8.93;4.97;;;16.60;99.90;;;;;;5011732;28;20187;-73
2023/07/31 01:16:23;;;;;;;7.03;4.87;;;16.60;99.90;;;;;;5014126;28;20226;-73
2023/07/31 01:18:48;;;;;;;6.33;5.30;;;16.60;99.90;;;;;;5014252;28;20219;-73
2023/07/31 01:21:35;;;;;;;8.13;5.00;;;16.60;99.90;;;;;;5014015;28;20535;-75
2023/07/31 01:24:36;;;;;;;6.73;5.00;;;16.70;99.90;;;;;;5013629;28;20164;-72
2023/07/31 01:27:06;;;;;;;9.53;5.27;;;16.70;99.90;;;;;;5014532;28;20206;-74
2023/07/31 01:29:53;;;;;;;6.87;4.73;;;16.70;99.90;;;;;;5013861;28;20215;-73
2023/07/31 01:32:20;;;;;;;6.57;5.83;;;16.70;99.90;;;;;;5013852;28;20168;-74
2023/07/31 01:34:46;;;;;;;7.00;5.47;;;16.80;99.90;;;;;;5013907;28;20673;-72
2023/07/31 01:37:12;;;;;;;6.03;4.13;;;16.80;99.90;;;;;;5013945;28;20351;-73
2023/07/31 01:39:38;;;;;;;6.43;4.70;;;16.90;99.90;;;;;;5013604;28;20272;-73
2023/07/31 01:42:03;;;;;;;6.77;4.87;;;16.90;99.90;;;;;;5013432;28;20238;-73
2023/07/31 01:44:29;;;;;;;6.87;4.80;;;16.90;99.90;;;;;;5013290;28;20180;-73
2023/07/31 01:46:55;;;;;;;9.27;5.07;;;17.00;99.90;;;;;;5012486;28;20669;-73
2023/07/31 01:49:20;;;;;;;6.10;5.50;;;17.00;99.90;;;;;;5013559;28;20212;-73
2023/07/31 01:51:46;;;;;;;7.37;5.33;;;17.00;99.90;;;;;;5013111;28;20188;-73
2023/07/31 01:54:12;;;;;;;8.83;5.03;;;17.00;99.90;;;;;;5013558;28;20200;-73
2023/07/31 01:56:37;;;;;;;9.37;5.90;;;17.00;99.90;;;;;;5013668;28;20206;-73
2023/07/31 01:59:03;;;;;;;5.40;4.90;;;17.00;99.90;;;;;;5013532;28;20242;-73
2023/07/31 02:01:28;;;;;;;8.53;4.40;;;17.10;99.90;;;;;;5012728;28;20682;-73
2023/07/31 02:03:54;;;;;;;5.93;4.13;;;17.10;99.90;;;;;;5013456;28;20180;-73
2023/07/31 02:06:20;;;;;;;7.23;4.50;;;17.10;99.90;;;;;;5013347;28;20227;-74
2023/07/31 02:08:45;;;;;;;6.67;4.57;;;17.10;99.90;;;;;;5013232;28;20196;-74
2023/07/31 02:11:11;;;;;;;5.93;4.47;;;17.10;99.90;;;;;;5013141;28;20259;-74
2023/07/31 02:13:36;;;;;;;6.47;3.80;;;17.20;99.90;;;;;;5012678;28;20191;-73
2023/07/31 02:16:02;;;;;;;8.13;4.30;;;17.20;99.90;;;;;;5012366;28;20196;-74
2023/07/31 02:18:28;;;;;;;5.30;4.43;;;17.20;99.90;;;;;;5013138;28;20273;-73
2023/07/31 02:20:53;;;;;;;6.63;4.13;;;17.20;99.90;;;;;;5013129;28;20184;-73
2023/07/31 02:23:19;;;;;;;8.20;4.30;;;17.20;99.90;;;;;;5011460;28;20190;-73
2023/07/31 02:25:45;;;;;;;8.17;4.70;;;17.20;99.90;;;;;;5013047;28;20283;-73
2023/07/31 02:28:11;;;;;;;4.50;4.10;;;17.30;99.90;;;;;;5011719;28;20200;-73
2023/07/31 02:30:37;;;;;;;5.07;4.17;;;17.30;99.90;;;;;;5012791;28;20187;-73
2023/07/31 02:33:03;;;;;;;7.93;4.93;;;17.30;99.90;;;;;;5011311;28;20196;-73
2023/07/31 02:35:28;;;;;;;6.03;5.30;;;17.30;99.90;;;;;;5011765;28;20203;-73
2023/07/31 02:37:54;;;;;;;7.43;4.40;;;17.30;99.90;;;;;;5012897;28;20173;-73
2023/07/31 02:40:20;;;;;;;5.20;4.70;;;17.30;99.90;;;;;;5012636;28;20192;-72
2023/07/31 02:42:45;;;;;;;6.20;4.50;;;17.30;99.90;;;;;;5012423;28;20194;-73
2023/07/31 02:45:11;;;;;;;4.10;3.80;;;17.30;99.90;;;;;;5012435;28;20254;-73
2023/07/31 02:47:36;;;;;;;7.47;4.20;;;17.30;99.90;;;;;;5012607;28;20658;-72
2023/07/31 02:50:06;;;;;;;5.67;3.70;;;17.30;99.90;;;;;;5012729;28;20641;-73
2023/07/31 02:52:31;;;;;;;7.30;4.57;;;17.30;99.90;;;;;;5010969;28;20263;-73
2023/07/31 02:54:58;;;;;;;6.50;3.83;;;17.40;99.90;;;;;;5011254;28;20259;-74
2023/07/31 02:57:23;;;;;;;5.17;4.27;;;17.30;99.90;;;;;;5012238;28;20168;-73
2023/07/31 02:59:49;;;;;;;6.47;4.43;;;17.40;99.90;;;;;;5012239;28;20579;-72
2023/07/31 03:02:14;;;;;;;9.60;5.33;;;17.40;99.90;;;;;;5012194;28;20176;-72
2023/07/31 03:04:40;;;;;;;9.30;4.47;;;17.40;99.90;;;;;;5012320;28;20176;-73
2023/07/31 03:07:06;;;;;;;7.07;5.03;;;17.40;99.90;;;;;;5012296;28;20681;-73
2023/07/31 03:09:32;;;;;;;8.37;4.33;;;17.50;99.90;;;;;;5011883;28;20215;-73
2023/07/31 03:11:57;;;;;;;7.73;4.60;;;17.50;99.90;;;;;;5010783;28;20313;-73
2023/07/31 03:14:23;;;;;;;6.43;4.20;;;17.50;99.90;;;;;;5012110;28;20184;-73
2023/07/31 03:16:49;;;;;;;8.40;5.57;;;17.50;99.90;;;;;;5012203;28;20500;-73
2023/07/31 03:19:14;;;;;;;8.40;5.07;;;17.60;99.90;;;;;;5011843;28;20179;-72
2023/07/31 03:21:40;;;;;;;7.53;4.93;;;17.50;99.90;;;;;;5011789;28;20176;-72
2023/07/31 03:24:06;;;;;;;5.10;4.50;;;17.50;99.90;;;;;;5012196;28;20180;-72
2023/07/31 03:26:32;;;;;;;5.57;4.20;;;17.50;99.90;;;;;;5011673;28;20202;-73
2023/07/31 03:28:58;;;;;;;7.90;4.40;;;17.50;99.90;;;;;;5011764;28;20727;-72
2023/07/31 03:31:24;;;;;;;6.93;4.23;;;17.50;99.90;;;;;;5011295;28;20188;-72
2023/07/31 03:33:49;;;;;;;7.13;4.67;;;17.50;99.90;;;;;;5011878;28;20176;-72
2023/07/31 03:36:15;;;;;;;9.60;4.70;;;17.50;99.90;;;;;;5011883;28;20203;-73
2023/07/31 03:38:40;;;;;;;7.00;5.13;;;17.50;99.90;;;;;;5011593;28;20266;-73
2023/07/31 03:41:06;;;;;;;7.17;4.43;;;17.40;99.90;;;;;;5011910;28;20222;-73
2023/07/31 03:43:35;;;;;;;5.23;4.03;;;17.40;99.90;;;;;;5010027;28;20180;-73
2023/07/31 03:46:01;;;;;;;8.60;4.70;;;17.30;99.90;;;;;;5011075;28;20207;-73
2023/07/31 03:48:26;;;;;;;10.73;5.00;;;17.30;99.90;;;;;;5011259;28;20204;-73
2023/07/31 03:50:52;;;;;;;8.20;4.40;;;17.30;99.90;;;;;;5011586;28;20520;-73
2023/07/31 03:53:18;;;;;;;6.43;4.40;;;17.30;99.90;;;;;;5011277;28;20172;-73
2023/07/31 03:55:43;;;;;;;10.53;4.83;;;17.40;99.90;;;;;;5011444;28;20265;-73
2023/07/31 03:58:09;;;;;;;7.83;4.67;;;17.40;99.90;;;;;;5011523;28;20547;-72
2023/07/31 04:00:34;;;;;;;7.40;5.33;;;17.40;99.90;;;;;;5011634;28;20258;-73
2023/07/31 04:03:00;;;;;;;10.73;4.87;;;17.40;99.90;;;;;;5011326;28;20184;-73
2023/07/31 04:05:25;;;;;;;7.47;5.13;;;17.40;99.90;;;;;;5011109;28;20715;-73
2023/07/31 04:07:51;;;;;;;6.30;4.80;;;17.40;99.90;;;;;;5011337;28;20195;-73
2023/07/31 04:10:17;;;;;;;7.60;4.87;;;17.40;99.90;;;;;;5011630;28;20219;-73
2023/07/31 04:12:42;;;;;;;6.63;4.87;;;17.50;99.90;;;;;;5011037;28;20219;-73
2023/07/31 04:15:08;;;;;;;7.17;4.73;;;17.50;99.90;;;;;;5011442;28;20195;-73
2023/07/31 04:17:34;;;;;;;5.97;5.00;;;17.50;99.90;;;;;;5010825;28;20694;-73
2023/07/31 04:19:59;;;;;;;7.13;5.23;;;17.40;99.90;;;;;;5011519;28;20180;-73
2023/07/31 04:22:25;;;;;;;8.93;5.43;;;17.50;99.90;;;;;;5011229;28;20222;-73
2023/07/31 04:24:51;;;;;;;8.23;4.77;;;17.50;99.90;;;;;;5011434;28;20654;-73
2023/07/31 04:27:16;;;;;;;9.03;4.80;;;17.50;99.90;;;;;;5010880;28;20448;-73
2023/07/31 04:29:44;;;;;;;4.83;4.33;;;17.50;99.90;;;;;;5011271;28;20287;-73
2023/07/31 04:32:09;;;;;;;11.13;5.50;;;17.60;99.90;;;;;;5011202;28;20610;-73
2023/07/31 04:34:35;;;;;;;6.13;4.97;;;17.60;99.90;;;;;;5010030;28;20267;-73
2023/07/31 04:37:00;;;;;;;8.67;5.67;;;17.60;99.90;;;;;;5011162;28;20192;-73
2023/07/31 04:39:26;;;;;;;6.97;5.60;;;17.60;99.90;;;;;;5010634;28;20187;-73
2023/07/31 04:41:52;;;;;;;8.80;5.30;;;17.60;99.90;;;;;;5010610;28;20301;-73
2023/07/31 04:44:17;;;;;;;7.03;5.47;;;17.60;99.90;;;;;;5011079;28;20208;-73
2023/07/31 04:46:43;;;;;;;6.43;4.73;;;17.60;99.90;;;;;;5010722;28;20399;-73
2023/07/31 04:49:08;;;;;;;6.47;5.00;;;17.70;99.90;;;;;;5010162;28;20242;-72
2023/07/31 04:51:34;;;;;;;9.43;4.83;;;17.60;99.90;;;;;;5009569;28;20172;-73
2023/07/31 04:54:00;;;;;;;8.37;5.03;;;17.70;99.90;;;;;;5008774;28;20176;-73
2023/07/31 04:56:25;;;;;;;8.00;5.57;;;17.70;99.90;;;;;;5010156;28;20246;-73
2023/07/31 04:58:51;;;;;;;7.07;4.83;;;17.60;99.90;;;;;;5012089;28;20173;-73
2023/07/31 05:01:16;;;;;;;8.30;5.03;;;17.60;99.90;;;;;;5013901;28;20185;-73
2023/07/31 05:03:42;;;;;;;7.50;5.13;;;17.60;99.90;;;;;;5014388;28;20689;-72
2023/07/31 05:06:08;;;;;;;6.83;4.47;;;17.60;99.90;;;;;;5014042;28;20203;-73
2023/07/31 05:08:33;;;;;;;6.80;4.83;;;17.60;99.90;;;;;;5014150;28;20223;-72
2023/07/31 05:10:59;;;;;;;9.40;5.73;;;17.60;99.90;;;;;;5014524;28;20192;-73
2023/07/31 05:13:24;;;;;;;5.30;4.60;;;17.60;99.90;;;;;;5013348;28;20188;-72
2023/07/31 05:15:50;;;;;;;6.60;4.57;;;17.60;99.90;;;;;;5013991;28;20207;-73
2023/07/31 05:18:15;;;;;;;6.53;4.70;;;17.70;99.90;;;;;;5014303;28;20195;-73
2023/07/31 05:20:41;;;;;;;7.17;4.60;;;17.70;99.90;;;;;;5014209;28;20594;-73
2023/07/31 05:23:07;;;;;;;7.27;4.70;;;17.80;99.90;;;;;;5012690;28;20207;-72
2023/07/31 05:25:32;;;;;;;9.13;4.90;;;17.80;99.90;;;;;;5012513;28;20223;-73
2023/07/31 05:27:58;;;;;;;6.50;4.73;;;17.80;99.90;;;;;;5013919;28;20204;-73
2023/07/31 05:30:24;;;;;;;5.63;4.97;;;17.90;99.90;;;;;;5013948;28;20180;-73
2023/07/31 05:32:49;;;;;;;5.17;4.67;;;17.90;99.90;;;;;;5013667;28;20176;-72
2023/07/31 05:35:15;;;;;;;5.00;4.50;;;18.00;99.90;;;;;;5013603;28;20563;-74
2023/07/31 05:37:40;;;;;;;4.77;3.90;;;18.00;99.90;;;;;;5014025;28;20176;-73
2023/07/31 05:40:07;;;;;;;8.03;4.43;;;18.00;99.90;;;;;;5013799;28;20168;-72
2023/07/31 05:42:32;;;;;;;6.93;4.53;;;18.00;99.90;;;;;;5013390;28;20176;-73
2023/07/31 05:44:58;;;;;;;4.93;4.40;;;18.00;99.90;;;;;;5013943;28;20172;-73
2023/07/31 05:47:23;;;;;;;5.87;4.00;;;18.00;99.90;;;;;;5013541;28;20208;-74
2023/07/31 05:49:52;;;;;;;6.90;4.10;;;18.00;99.90;;;;;;5013915;28;20204;-73
2023/07/31 05:52:18;;;;;;;5.50;3.87;;;18.00;99.90;;;;;;5013440;28;20531;-73
2023/07/31 05:54:44;;;;;;;7.83;4.53;;;18.00;99.90;;;;;;5013297;28;20191;-73
2023/07/31 05:57:09;;;;;;;5.57;4.50;;;18.00;99.90;;;;;;5013622;28;20180;-74
2023/07/31 05:59:35;;;;;;;4.90;4.40;;;17.90;99.90;;;;;;5013204;28;20257;-73
2023/07/31 06:02:00;;;;;;;6.63;4.50;;;17.80;99.90;;;;;;5012707;28;20646;-72
2023/07/31 06:04:26;;;;;;;6.33;4.67;;;17.70;99.90;;;;;;5013494;28;20176;-74
2023/07/31 06:06:52;;;;;;;11.50;4.70;;;17.60;99.90;;;;;;5012995;28;20206;-73
2023/07/31 06:09:17;;;;;;;6.90;4.40;;;17.40;99.90;;;;;;5012796;28;20617;-73
2023/07/31 06:11:43;;;;;;;6.90;4.70;;;17.30;99.90;;;;;;5012588;28;20188;-73
2023/07/31 06:14:09;;;;;;;8.00;5.10;;;17.30;99.90;;;;;;5013235;28;20242;-73
2023/07/31 06:16:34;;;;;;;6.37;4.80;;;17.20;99.90;;;;;;5012847;28;20200;-73
2023/07/31 06:19:00;;;;;;;5.03;4.53;;;17.20;99.90;;;;;;5013227;28;20203;-73
2023/07/31 06:21:26;;;;;;;7.10;4.37;;;17.10;99.90;;;;;;5012441;28;20176;-74
2023/07/31 06:23:52;;;;;;;6.00;4.47;;;17.10;99.90;;;;;;5013195;28;20259;-73
2023/07/31 06:26:18;;;;;;;5.97;4.23;;;17.10;99.90;;;;;;5011814;28;20204;-73
2023/07/31 06:28:43;;;;;;;6.73;4.97;;;17.20;99.90;;;;;;5012961;28;20204;-73
2023/07/31 06:31:09;;;;;;;9.57;6.83;;;17.20;99.90;;;;;;5012845;28;20179;-73
2023/07/31 06:33:35;;;;;;;5.27;4.77;;;17.20;99.90;;;;;;5012526;28;20605;-73
2023/07/31 06:36:00;;;;;;;5.50;4.83;;;17.20;99.90;;;;;;5012923;28;20224;-73
2023/07/31 06:38:27;;;;;;;6.37;4.70;;;17.30;99.90;;;;;;5012732;28;20262;-73
2023/07/31 06:40:52;;;;;;;4.83;4.33;;;17.30;99.90;;;;;;5012669;28;20172;-73
2023/07/31 06:43:18;;;;;;;9.43;5.43;;;17.30;99.90;;;;;;5012386;28;20183;-72
2023/07/31 06:45:44;;;;;;;7.73;5.33;;;17.40;99.90;;;;;;5012883;28;20214;-73
2023/07/31 06:48:10;;;;;;;8.03;5.00;;;17.50;99.90;;;;;;5012864;28;20283;-73
2023/07/31 06:50:35;;;;;;;5.60;4.77;;;17.60;99.90;;;;;;5011632;28;20177;-73
2023/07/31 06:53:01;;;;;;;5.90;4.70;;;17.70;99.90;;;;;;5012406;28;20199;-72
2023/07/31 06:55:27;;;;;;;5.43;4.63;;;17.70;99.90;;;;;;5011557;28;20242;-73
2023/07/31 06:57:54;;;;;;;7.83;4.90;;;17.80;99.90;;;;;;5011689;28;20184;-73
2023/07/31 07:00:22;;;;;;;7.23;4.83;;;17.90;99.90;;;;;;5012446;28;20172;-73
2023/07/31 07:02:48;;;;;;;4.80;4.20;;;17.90;99.90;;;;;;5011589;28;20180;-73
2023/07/31 07:05:14;;;;;;;5.37;4.57;;;18.00;99.90;;;;;;5012179;28;20274;-73
2023/07/31 07:07:41;;;;;;;7.70;4.23;;;18.10;99.90;;;;;;5012161;28;20183;-73
2023/07/31 07:10:07;;;;;;;6.87;4.10;;;18.10;99.90;;;;;;5009245;28;20290;-73
2023/07/31 07:12:33;;;;;;;8.43;4.37;;;18.20;99.90;;;;;;5011369;28;20171;-73
2023/07/31 07:14:59;;;;;;;4.47;4.07;;;18.20;99.90;;;;;;5011135;28;20183;-72
2023/07/31 07:17:27;;;;;;;5.50;4.63;;;18.30;99.90;;;;;;5012172;28;20583;-73
2023/07/31 07:19:52;;;;;;;7.83;4.03;;;18.30;99.90;;;;;;5012149;28;20180;-72
2023/07/31 07:22:18;;;;;;;6.20;4.13;;;18.40;99.90;;;;;;5011142;28;20180;-72
2023/07/31 07:24:44;;;;;;;4.83;4.20;;;18.30;99.90;;;;;;5012070;28;20165;-72
2023/07/31 07:27:10;;;;;;;5.57;4.33;;;18.20;99.90;;;;;;5012489;28;20195;-73
2023/07/31 07:29:35;;;;;;;5.93;4.33;;;18.10;99.90;;;;;;5011629;28;20257;-71
2023/07/31 07:32:01;;;;;;;6.83;4.43;;;18.00;99.90;;;;;;5011109;28;20172;-72
2023/07/31 07:34:27;;;;;;;5.43;4.73;;;17.90;99.90;;;;;;5011722;28;20179;-71
2023/07/31 07:36:53;;;;;;;10.80;4.67;;;17.80;99.90;;;;;;5011786;28;20559;-72
2023/07/31 07:39:19;;;;;;;6.43;4.33;;;17.80;99.90;;;;;;5011246;28;20184;-71
2023/07/31 07:41:44;;;;;;;8.30;4.73;;;17.70;99.90;;;;;;5011286;28;20219;-71
2023/07/31 07:44:10;;;;;;;6.00;4.17;;;17.70;99.90;;;;;;5011628;28;20180;-71
2023/07/31 07:46:35;;;;;;;5.90;3.83;;;17.60;99.90;;;;;;5011440;28;20248;-71
2023/07/31 07:49:01;;;;;;;11.97;4.97;;;17.50;99.90;;;;;;5011359;28;20642;-71
2023/07/31 07:51:27;;;;;;;4.67;4.17;;;17.50;99.90;;;;;;5010783;28;20184;-71
2023/07/31 07:53:52;;;;;;;4.90;4.37;;;17.50;99.90;;;;;;5011722;28;20169;-71
2023/07/31 07:56:18;;;;;;;7.07;4.60;;;17.50;99.90;;;;;;5011531;28;20604;-71
2023/07/31 07:58:43;;;;;;;4.97;4.47;;;17.50;99.90;;;;;;5011182;28;20611;-71
2023/07/31 08:01:09;;;;;;;5.87;4.77;;;17.40;99.90;;;;;;5011730;28;20183;-70
2023/07/31 08:03:34;;;;;;;5.40;4.63;;;17.40;99.90;;;;;;5010929;28;20191;-71
2023/07/31 08:06:01;;;;;;;5.90;4.83;;;17.30;99.90;;;;;;5011510;28;20196;-71
2023/07/31 08:08:28;;;;;;;5.33;4.80;;;17.30;99.90;;;;;;5011068;28;20673;-72
2023/07/31 08:10:53;;;;;;;4.73;4.33;;;17.20;99.90;;;;;;5010996;28;20658;-71
2023/07/31 08:13:19;;;;;;;4.73;4.23;;;17.20;99.90;;;;;;5011026;28;20199;-72
2023/07/31 08:15:44;;;;;;;7.23;4.37;;;17.20;99.90;;;;;;5011224;28;20196;-72
2023/07/31 08:18:11;;;;;;;5.70;4.30;;;17.30;99.90;;;;;;5011719;28;20184;-71
2023/07/31 08:20:37;;;;;;;7.50;4.97;;;17.40;99.90;;;;;;5011034;28;20207;-72
2023/07/31 08:23:03;;;;;;;6.87;4.13;;;17.40;99.90;;;;;;5011171;28;20180;-71
2023/07/31 08:25:29;;;;;;;6.90;4.57;;;17.50;99.90;;;;;;5011212;28;20628;-71
2023/07/31 08:27:55;;;;;;;5.63;4.40;;;17.50;99.90;;;;;;5010149;28;20234;-72
2023/07/31 08:30:21;;;;;;;5.10;4.60;;;17.60;99.90;;;;;;5009801;28;20176;-71
2023/07/31 08:32:46;;;;;;;4.40;4.07;;;17.70;99.90;;;;;;5011743;28;20172;-71
2023/07/31 08:35:12;;;;;;;4.63;4.23;;;17.80;99.90;;;;;;5015056;28;20743;-72
2023/07/31 08:37:38;;;;;;;5.83;4.10;;;17.80;99.90;;;;;;5014879;28;20168;-72
2023/07/31 08:40:05;;;;;;;4.90;4.20;;;17.90;99.90;;;;;;5015098;28;20662;-72
2023/07/31 08:42:31;;;;;;;7.77;4.00;;;17.90;99.90;;;;;;5014558;28;20176;-71
2023/07/31 08:44:59;;;;;;;5.73;4.03;;;18.10;99.90;;;;;;5015082;28;20543;-72
2023/07/31 08:47:27;;;;;;;6.23;4.03;;;18.20;99.90;;;;;;5014700;28;20172;-71
2023/07/31 08:49:54;;;;;;;4.70;4.30;;;18.30;99.90;;;;;;5014664;28;20287;-71
2023/07/31 08:52:20;;;;;;;4.27;3.87;;;18.30;99.90;;;;;;5014538;28;20222;-71
2023/07/31 08:54:45;;;;;;;5.83;4.40;;;18.30;99.90;;;;;;5014319;28;20180;-71
2023/07/31 08:57:12;;;;;;;5.07;3.90;;;18.50;99.90;;;;;;5014674;28;20172;-72
2023/07/31 08:59:39;;;;;;;5.93;4.03;;;18.60;99.90;;;;;;5013958;28;20612;-71
2023/07/31 09:02:08;;;;;;;5.13;4.57;;;18.60;99.90;;;;;;5014461;28;20178;-71
2023/07/31 09:04:35;;;;;;;5.30;4.30;;;18.60;99.90;;;;;;5014479;28;20611;-73
2023/07/31 09:07:04;;;;;;;4.27;3.97;;;18.60;99.90;;;;;;5014922;28;20739;-71
2023/07/31 09:09:30;;;;;;;5.07;4.07;;;18.50;99.90;;;;;;5013705;28;20673;-72
2023/07/31 09:11:57;;;;;;;5.93;3.87;;;18.40;99.90;;;;;;5014383;28;20602;-71
2023/07/31 09:14:25;;;;;;;4.50;4.17;;;18.40;99.90;;;;;;5014180;28;20192;-71
2023/07/31 09:16:59;;;;;;;6.60;3.87;;;18.30;99.90;;;;;;5014377;28;20188;-73
2023/07/31 09:19:34;;;;;;;5.57;4.00;;;18.30;99.90;;;;;;5014029;28;20788;-71
2023/07/31 09:22:00;;;;;;;8.97;4.20;;;18.30;99.90;;;;;;5014313;28;20653;-72
2023/07/31 09:24:30;;;;;;;4.97;4.47;;;18.20;99.90;;;;;;5014004;28;20680;-72
2023/07/31 09:26:58;;;;;;;9.73;4.17;;;18.30;99.90;;;;;;5014436;28;20200;-72
2023/07/31 09:29:26;;;;;;;4.83;4.17;;;18.40;99.90;;;;;;5013697;28;20299;-73
2023/07/31 09:31:53;;;;;;;5.47;4.90;;;18.50;99.90;;;;;;5013742;28;20210;-72
2023/07/31 09:34:19;;;;;;;4.33;3.93;;;18.70;99.90;;;;;;5014060;28;20251;-71
2023/07/31 09:36:48;;;;;;;5.10;3.43;;;18.90;99.90;;;;;;5013148;28;20196;-71
2023/07/31 09:39:19;;;;;;;5.30;3.60;;;19.20;99.90;;;;;;5013961;28;20176;-72
2023/07/31 09:41:54;;;;;;;4.43;3.50;;;19.30;99.90;;;;;;5013717;28;20670;-71
2023/07/31 09:44:19;;;;;;;4.63;3.40;;;19.40;99.90;;;;;;5013287;28;20668;-71
2023/07/31 09:46:45;;;;;;;3.30;3.03;;;19.70;99.90;;;;;;5013431;28;20211;-72
2023/07/31 09:49:13;;;;;;;3.70;3.40;;;19.90;99.90;;;;;;5013708;28;20204;-71
2023/07/31 09:51:40;;;;;;;3.53;3.23;;;19.90;99.90;;;;;;5013506;28;20204;-72
2023/07/31 09:54:15;;;;;;;4.70;3.50;;;20.00;99.90;;;;;;5013649;28;20542;-71
2023/07/31 09:56:48;;;;;;;3.43;3.13;;;20.20;99.90;;;;;;5012885;28;20208;-73
2023/07/31 09:59:18;;;;;;;4.47;3.57;;;20.50;99.90;;;;;;5013755;28;20577;-71
2023/07/31 10:01:46;;;;;;;4.63;3.43;;;20.50;99.90;;;;;;5012990;28;20246;-71
2023/07/31 10:04:12;;;;;;;4.77;3.50;;;20.40;99.90;;;;;;5013437;28;20523;-71
2023/07/31 10:06:40;;;;;;;6.10;3.33;;;20.40;99.90;;;;;;5013007;28;20211;-71
2023/07/31 10:09:08;;;;;;;6.23;3.70;;;20.30;99.90;;;;;;5013526;28;20323;-71
2023/07/31 10:11:50;;;;;;;4.77;3.87;;;20.30;99.90;;;;;;5012874;28;20168;-70
2023/07/31 10:14:19;;;;;;;5.20;3.33;;;20.20;99.90;;;;;;5013089;28;20278;-71
2023/07/31 10:16:45;;;;;;;5.20;4.00;;;20.30;99.90;;;;;;5011009;28;20674;-71
2023/07/31 10:19:11;;;;;;;3.53;3.23;;;20.30;99.90;;;;;;5013198;28;20180;-71
2023/07/31 10:21:37;;;;;;;4.77;3.20;;;20.10;99.90;;;;;;5012599;28;20263;-71
2023/07/31 10:24:04;;;;;;;4.23;3.73;;;20.00;99.90;;;;;;5012839;28;20187;-72
2023/07/31 10:26:33;;;;;;;3.33;3.03;;;19.80;99.90;;;;;;5012881;28;20196;-70
2023/07/31 10:29:00;;;;;;;5.50;3.43;;;19.60;99.90;;;;;;5012854;28;20207;-70
2023/07/31 10:31:27;;;;;;;4.03;3.40;;;19.40;99.90;;;;;;5012689;28;20195;-71
2023/07/31 10:33:55;;;;;;;4.73;3.20;;;19.30;99.90;;;;;;5012353;28;20212;-70
2023/07/31 10:36:21;;;;;;;5.10;3.27;;;19.40;99.90;;;;;;5012791;28;20666;-71
2023/07/31 10:38:52;;;;;;;5.10;3.50;;;19.40;99.90;;;;;;5012512;28;20218;-71
2023/07/31 10:41:18;;;;;;;5.37;3.40;;;19.50;99.90;;;;;;5012760;28;20238;-70
2023/07/31 10:43:46;;;;;;;3.47;3.17;;;19.50;99.90;;;;;;5012369;28;20649;-70
2023/07/31 10:46:13;;;;;;;4.17;3.10;;;19.40;99.90;;;;;;5012532;28;20188;-71
2023/07/31 10:48:41;;;;;;;3.57;3.27;;;19.30;99.90;;;;;;5011374;28;20612;-70
2023/07/31 10:51:10;;;;;;;4.07;3.07;;;19.30;99.90;;;;;;5008477;28;20752;-70
2023/07/31 10:53:36;;;;;;;5.73;3.30;;;19.20;99.90;;;;;;5011237;28;20635;-70
2023/07/31 10:56:04;;;;;;;3.03;2.83;;;19.20;99.90;;;;;;5010992;28;20200;-70
2023/07/31 10:58:33;;;;;;;4.40;4.00;;;19.40;99.90;;;;;;5012276;28;20173;-72
2023/07/31 11:01:03;;;;;;;3.27;3.07;;;19.70;99.90;;;;;;5012078;28;20645;-70
2023/07/31 11:03:47;;;;;;;2.75;2.55;;;20.00;99.90;;;;;;5011875;28;20268;-71
2023/07/31 11:06:14;;;;;;;3.67;2.90;;;20.30;99.90;;;;;;5012302;28;20191;-71
2023/07/31 11:08:45;;;;;;;2.53;2.33;;;20.70;99.90;;;;;;5011285;28;20736;-72
2023/07/31 11:11:12;;;;;;;3.57;3.37;;;21.10;99.90;;;;;;5012111;28;20180;-69
2023/07/31 11:13:49;;;;;;;2.37;2.27;;;21.30;99.90;;;;;;5011752;28;20271;-71
2023/07/31 11:16:15;;;;;;;2.92;2.72;;;21.40;99.90;;;;;;5011044;28;20204;-70
2023/07/31 11:18:43;;;;;;;2.20;2.03;;;21.50;99.90;;;;;;5010514;28;20188;-70
2023/07/31 11:21:17;;;;;;;3.35;2.28;;;21.60;99.90;;;;;;5011563;28;20180;-71
2023/07/31 11:23:46;;;;;;;2.75;2.50;;;21.80;99.90;;;;;;5009697;28;20180;-71
2023/07/31 11:26:12;;;;;;;2.28;2.17;;;21.70;99.90;;;;;;5012103;28;20666;-73
2023/07/31 11:28:38;;;;;;;2.75;2.55;;;21.60;99.90;;;;;;5011822;28;20202;-73
2023/07/31 11:31:04;;;;;;;2.60;2.22;;;21.60;99.90;;;;;;5010210;28;20172;-73
2023/07/31 11:33:30;;;;;;;2.57;2.47;;;21.80;99.90;;;;;;5010199;28;20259;-70
2023/07/31 11:35:56;;;;;;;2.35;2.25;;;21.80;99.90;;;;;;5011867;28;20629;-71
2023/07/31 11:38:27;;;;;;;2.63;2.42;;;21.70;99.90;;;;;;5011912;28;20172;-74
2023/07/31 11:40:54;;;;;;;2.90;2.70;;;21.70;99.90;;;;;;5011625;28;20176;-72
2023/07/31 11:43:21;;;;;;;2.42;2.33;;;21.60;99.90;;;;;;5002111;28;20546;-73
2023/07/31 11:45:55;;;;;;;2.57;2.37;;;21.50;99.90;;;;;;5011382;28;20195;-71
2023/07/31 11:48:33;;;;;;;2.10;2.00;;;21.50;99.90;;;;;;5011805;28;20198;-72
2023/07/31 11:51:01;;;;;;;2.47;2.38;;;21.80;99.90;;;;;;5010141;28;20176;-71
2023/07/31 11:53:38;;;;;;;2.10;2.00;;;22.10;99.90;;;;;;5011363;28;20179;-71
2023/07/31 11:56:06;;;;;;;2.50;2.30;;;22.30;99.90;;;;;;5011742;28;20183;-72
2023/07/31 11:58:33;;;;;;;2.15;2.05;;;22.10;99.90;;;;;;5011664;28;20176;-74
2023/07/31 12:00:59;;;;;;;2.50;2.30;;;22.00;99.90;;;;;;5011412;28;20299;-70
2023/07/31 12:03:26;;;;;;;2.30;2.20;;;21.90;99.90;;;;;;5010567;28;20183;-71
2023/07/31 12:05:53;;;;;;;2.65;2.30;;;21.70;99.90;;;;;;5011621;28;20202;-71
2023/07/31 12:08:21;;;;;;;2.67;2.47;;;21.60;99.90;;;;;;5015124;28;20577;-70
2023/07/31 12:10:49;;;;;;;2.60;2.40;;;21.60;99.90;;;;;;5015967;28;20654;-72
2023/07/31 12:13:29;;;;;;;2.90;2.70;;;21.50;99.90;;;;;;5015649;28;20661;-72
2023/07/31 12:16:01;;;;;;;2.77;2.57;;;21.50;99.90;;;;;;5014834;28;20200;-73
2023/07/31 12:18:29;;;;;;;3.03;2.83;;;21.40;99.90;;;;;;5014005;28;20180;-71
2023/07/31 12:20:59;;;;;;;3.27;2.90;;;21.20;99.90;;;;;;5015724;28;20172;-72
2023/07/31 12:23:28;;;;;;;3.20;3.00;;;21.10;99.90;;;;;;5014900;28;20172;-71
2023/07/31 12:26:01;;;;;;;3.00;2.77;;;21.10;99.90;;;;;;5013758;28;20200;-69
2023/07/31 12:28:27;;;;;;;3.30;3.00;;;21.20;99.90;;;;;;5015261;28;20295;-69
2023/07/31 12:30:59;;;;;;;5.03;2.90;;;21.30;99.90;;;;;;5015229;28;20323;-70
2023/07/31 12:33:29;;;;;;;3.15;2.95;;;21.60;99.90;;;;;;5015249;28;20176;-71
2023/07/31 12:35:55;;;;;;;3.55;2.92;;;22.00;99.90;;;;;;5015007;28;20204;-71
2023/07/31 12:38:21;;;;;;;3.45;3.00;;;22.40;99.90;;;;;;5015299;28;20176;-71
2023/07/31 12:40:46;;;;;;;4.07;2.58;;;22.50;99.90;;;;;;5015169;28;20604;-70
2023/07/31 12:43:13;;;;;;;3.30;3.00;;;22.50;99.90;;;;;;5014951;28;20263;-70